PWSweather.com
Personal Weather Stations
Station Observations
KNCCHINA3
Red Tractor Trail, China Grove, NC 28023

Red Tractor TrailChina Grove, NC 28023

Lat: 35.59751, Lon: -80.60201

Elevation: 800

Station Type: Oregon Scientific WMR 968

http://www.joesweathergarage.com

High Low Average
Temperature 68.7°F20.4°C 51.5°F10.8°C 64.1°F17.8°C
Dew Point 65.9°F18.8°C 50.9°F10.5°C 62.5°F16.9°C
Winds 12.5 mph 20.1 kmh Calm Calm 6.0 mph SSW9.7 kmh SSW
Wind Gusts 22.0 mph35.4 kmh -- 12.0 mph19.3 kmh
Humidity 98% 86% 95%
Pressure 30.06 in1017.9 mb 29.94 in1013.9 mb -
Precipitation 0.12 in3.0 mm - -
Hour Temp Dew Point Humidity Winds Wind Gusts Pressure Precip Precip Rate Daily Precip Total
12:04 AM 51.9°F11.1°C 51.3°F10.7°C 98% 2.8 mph NE4.5 kmh NE 6.8 mph10.9 kmh 30.03 in1016.9 mb 0.00 in0.0 mm 0.00 in0.0 mm 0.09 in2.3 mm
12:09 AM 51.9°F11.1°C 51.3°F10.7°C 98% 3.0 mph N4.8 kmh N 6.8 mph10.9 kmh 30.03 in1016.9 mb 0.00 in0.0 mm 0.00 in0.0 mm 0.09 in2.3 mm
12:14 AM 51.7°F10.9°C 51.1°F10.6°C 98% 4.6 mph ENE7.4 kmh ENE 7.2 mph11.6 kmh 30.03 in1016.9 mb 0.00 in0.0 mm 0.00 in0.0 mm 0.09 in2.3 mm
12:21 AM 51.7°F10.9°C 51.1°F10.6°C 98% 3.9 mph ENE6.3 kmh ENE 6.2 mph10.0 kmh 30.03 in1016.9 mb 0.00 in0.0 mm 0.00 in0.0 mm 0.09 in2.3 mm
12:26 AM 51.5°F10.8°C 50.9°F10.5°C 98% 4.1 mph N6.6 kmh N 5.4 mph8.7 kmh 30.03 in1016.9 mb 0.00 in0.0 mm 0.00 in0.0 mm 0.09 in2.3 mm
12:33 AM 51.5°F10.8°C 50.9°F10.5°C 98% 5.8 mph NNE9.3 kmh NNE 8.0 mph12.9 kmh 30.03 in1016.9 mb 0.00 in0.0 mm 0.00 in0.0 mm 0.09 in2.3 mm
12:38 AM 51.5°F10.8°C 50.9°F10.5°C 98% 5.3 mph N8.5 kmh N 8.0 mph12.9 kmh 30.03 in1016.9 mb 0.00 in0.0 mm 0.00 in0.0 mm 0.09 in2.3 mm
12:43 AM 51.5°F10.8°C 50.9°F10.5°C 98% 3.9 mph N6.3 kmh N 7.2 mph11.6 kmh 30.03 in1016.9 mb 0.00 in0.0 mm 0.00 in0.0 mm 0.09 in2.3 mm
12:48 AM 51.5°F10.8°C 50.9°F10.5°C 98% 3.9 mph W6.3 kmh W 5.4 mph8.7 kmh 30.03 in1016.9 mb 0.04 in1.0 mm 0.48 in12.2 mm 0.13 in3.3 mm
12:53 AM 51.5°F10.8°C 50.9°F10.5°C 98% 3.0 mph NE4.8 kmh NE 5.0 mph8.0 kmh 30.03 in1016.9 mb 0.04 in1.0 mm 0.00 in0.0 mm 0.13 in3.3 mm
12:58 AM 51.5°F10.8°C 50.9°F10.5°C 98% 3.8 mph ENE6.1 kmh ENE 5.8 mph9.3 kmh 30.03 in1016.9 mb 0.04 in1.0 mm 0.00 in0.0 mm 0.13 in3.3 mm
01:03 AM 51.5°F10.8°C 50.9°F10.5°C 98% 5.7 mph NW9.2 kmh NW 6.8 mph10.9 kmh 30.03 in1016.9 mb 0.00 in0.0 mm 0.00 in0.0 mm 0.04 in1.0 mm
01:08 AM 51.5°F10.8°C 50.9°F10.5°C 98% 6.0 mph NW9.7 kmh NW 8.6 mph13.8 kmh 30.03 in1016.9 mb 0.00 in0.0 mm 0.00 in0.0 mm 0.04 in1.0 mm
01:13 AM 51.5°F10.8°C 50.9°F10.5°C 98% 2.4 mph ENE3.9 kmh ENE 8.6 mph13.8 kmh 30.00 in1015.9 mb 0.00 in0.0 mm 0.00 in0.0 mm 0.04 in1.0 mm
01:18 AM 51.5°F10.8°C 50.9°F10.5°C 98% 6.8 mph NW10.9 kmh NW 8.0 mph12.9 kmh 30.00 in1015.9 mb 0.04 in1.0 mm 0.48 in12.2 mm 0.04 in1.0 mm
01:23 AM 51.5°F10.8°C 50.9°F10.5°C 98% 4.7 mph NNE7.6 kmh NNE 9.0 mph14.5 kmh 30.00 in1015.9 mb 0.08 in2.0 mm 0.48 in12.2 mm 0.08 in2.0 mm
01:28 AM 51.5°F10.8°C 50.9°F10.5°C 98% 3.4 mph SSE5.5 kmh SSE 9.0 mph14.5 kmh 30.00 in1015.9 mb 0.08 in2.0 mm 0.00 in0.0 mm 0.08 in2.0 mm
01:33 AM 51.5°F10.8°C 50.9°F10.5°C 98% 5.3 mph ESE8.5 kmh ESE 7.6 mph12.2 kmh 30.00 in1015.9 mb 0.08 in2.0 mm 0.00 in0.0 mm 0.08 in2.0 mm
01:38 AM 51.5°F10.8°C 50.9°F10.5°C 98% 3.7 mph SSW6.0 kmh SSW 7.6 mph12.2 kmh 30.00 in1015.9 mb 0.08 in2.0 mm 0.00 in0.0 mm 0.08 in2.0 mm
01:43 AM 51.7°F10.9°C 51.1°F10.6°C 98% 1.8 mph SSE2.9 kmh SSE 7.6 mph12.2 kmh 30.00 in1015.9 mb 0.08 in2.0 mm 0.00 in0.0 mm 0.08 in2.0 mm
01:48 AM 51.7°F10.9°C 51.1°F10.6°C 98% 1.8 mph SSE2.9 kmh SSE 5.4 mph8.7 kmh 30.00 in1015.9 mb 0.08 in2.0 mm 0.00 in0.0 mm 0.08 in2.0 mm
01:53 AM 51.7°F10.9°C 51.1°F10.6°C 98% Calm Calm 4.0 mph6.4 kmh 30.00 in1015.9 mb 0.08 in2.0 mm 0.00 in0.0 mm 0.08 in2.0 mm
01:58 AM 51.9°F11.1°C 51.3°F10.7°C 98% Calm Calm 4.4 mph7.1 kmh 30.00 in1015.9 mb 0.00 in0.0 mm 0.00 in0.0 mm 0.08 in2.0 mm
02:03 AM 51.9°F11.1°C 51.3°F10.7°C 98% Calm Calm 4.4 mph7.1 kmh 30.00 in1015.9 mb 0.00 in0.0 mm 0.00 in0.0 mm 0.08 in2.0 mm
02:08 AM 51.9°F11.1°C 51.3°F10.7°C 98% 2.8 mph ESE4.5 kmh ESE 3.2 mph5.1 kmh 30.00 in1015.9 mb 0.00 in0.0 mm 0.00 in0.0 mm 0.08 in2.0 mm
02:13 AM 51.9°F11.1°C 51.3°F10.7°C 98% 2.9 mph ESE4.7 kmh ESE 4.0 mph6.4 kmh 30.00 in1015.9 mb 0.00 in0.0 mm 0.00 in0.0 mm 0.08 in2.0 mm
02:18 AM 51.9°F11.1°C 51.3°F10.7°C 98% Calm Calm 4.0 mph6.4 kmh 30.00 in1015.9 mb 0.00 in0.0 mm 0.00 in0.0 mm 0.08 in2.0 mm
02:23 AM 51.9°F11.1°C 51.3°F10.7°C 98% Calm Calm 2.2 mph3.5 kmh 30.00 in1015.9 mb 0.00 in0.0 mm 0.00 in0.0 mm 0.08 in2.0 mm
02:28 AM 51.9°F11.1°C 51.3°F10.7°C 98% 3.3 mph SSW5.3 kmh SSW 4.4 mph7.1 kmh 30.00 in1015.9 mb 0.00 in0.0 mm 0.00 in0.0 mm 0.08 in2.0 mm
02:34 AM 51.9°F11.1°C 51.3°F10.7°C 98% Calm Calm 4.4 mph7.1 kmh 30.00 in1015.9 mb 0.00 in0.0 mm 0.00 in0.0 mm 0.08 in2.0 mm
02:39 AM 51.9°F11.1°C 51.3°F10.7°C 98% 2.9 mph ESE4.7 kmh ESE 4.0 mph6.4 kmh 30.00 in1015.9 mb 0.00 in0.0 mm 0.00 in0.0 mm 0.08 in2.0 mm
02:44 AM 52.1°F11.2°C 51.5°F10.8°C 98% Calm Calm 4.0 mph6.4 kmh 29.97 in1014.9 mb 0.00 in0.0 mm 0.00 in0.0 mm 0.08 in2.0 mm
02:49 AM 52.1°F11.2°C 51.5°F10.8°C 98% Calm Calm -- 29.97 in1014.9 mb 0.00 in0.0 mm 0.00 in0.0 mm 0.08 in2.0 mm
02:54 AM 52.1°F11.2°C 51.5°F10.8°C 98% Calm Calm -- 29.97 in1014.9 mb 0.00 in0.0 mm 0.00 in0.0 mm 0.08 in2.0 mm
03:00 AM 52.1°F11.2°C 51.5°F10.8°C 98% Calm Calm -- 29.97 in1014.9 mb 0.00 in0.0 mm 0.00 in0.0 mm 0.08 in2.0 mm
03:04 AM 53.0°F11.7°C 52.4°F11.3°C 98% 3.0 mph ESE4.8 kmh ESE 4.4 mph7.1 kmh 29.97 in1014.9 mb 0.00 in0.0 mm 0.00 in0.0 mm 0.08 in2.0 mm
03:10 AM 55.3°F12.9°C 54.7°F12.6°C 98% 5.4 mph S8.7 kmh S 6.2 mph10.0 kmh 29.97 in1014.9 mb 0.00 in0.0 mm 0.00 in0.0 mm 0.08 in2.0 mm
03:16 AM 57.1°F13.9°C 56.5°F13.6°C 98% 8.0 mph SSW12.9 kmh SSW 13.0 mph20.9 kmh 29.94 in1013.9 mb 0.00 in0.0 mm 0.00 in0.0 mm 0.08 in2.0 mm
03:20 AM 59.6°F15.3°C 59.0°F15.0°C 98% 6.3 mph S10.1 kmh S 13.0 mph20.9 kmh 29.94 in1013.9 mb 0.00 in0.0 mm 0.00 in0.0 mm 0.08 in2.0 mm
03:25 AM 61.0°F16.1°C 60.5°F15.8°C 98% 7.9 mph SSW12.7 kmh SSW 13.0 mph20.9 kmh 29.94 in1013.9 mb 0.00 in0.0 mm 0.00 in0.0 mm 0.08 in2.0 mm
03:31 AM 61.3°F16.3°C 60.8°F16.0°C 98% 5.5 mph S8.9 kmh S 13.0 mph20.9 kmh 29.97 in1014.9 mb 0.00 in0.0 mm 0.00 in0.0 mm 0.08 in2.0 mm
03:37 AM 61.7°F16.5°C 61.2°F16.2°C 98% 7.6 mph S12.2 kmh S 12.6 mph20.3 kmh 29.97 in1014.9 mb 0.00 in0.0 mm 0.00 in0.0 mm 0.08 in2.0 mm
03:42 AM 62.2°F16.8°C 61.7°F16.5°C 98% 8.4 mph SSW13.5 kmh SSW 15.2 mph24.5 kmh 29.97 in1014.9 mb 0.00 in0.0 mm 0.00 in0.0 mm 0.08 in2.0 mm
03:48 AM 62.4°F16.9°C 61.9°F16.6°C 98% 6.9 mph SSW11.1 kmh SSW 15.2 mph24.5 kmh 29.97 in1014.9 mb 0.00 in0.0 mm 0.00 in0.0 mm 0.08 in2.0 mm
03:53 AM 62.4°F16.9°C 61.9°F16.6°C 98% 7.8 mph SSW12.6 kmh SSW 13.0 mph20.9 kmh 29.97 in1014.9 mb 0.00 in0.0 mm 0.00 in0.0 mm 0.08 in2.0 mm
03:59 AM 62.4°F16.9°C 61.9°F16.6°C 98% 6.9 mph S11.1 kmh S 13.0 mph20.9 kmh 29.97 in1014.9 mb 0.00 in0.0 mm 0.00 in0.0 mm 0.08 in2.0 mm
04:04 AM 62.6°F17.0°C 62.0°F16.7°C 98% 9.9 mph SSW15.9 kmh SSW 22.0 mph35.4 kmh 29.97 in1014.9 mb 0.00 in0.0 mm 0.00 in0.0 mm 0.08 in2.0 mm
04:12 AM 62.8°F17.1°C 62.2°F16.8°C 98% 8.6 mph SSW13.8 kmh SSW 14.4 mph23.2 kmh 29.97 in1014.9 mb 0.00 in0.0 mm 0.00 in0.0 mm 0.08 in2.0 mm
04:17 AM 62.8°F17.1°C 62.2°F16.8°C 98% 7.7 mph SSW12.4 kmh SSW 14.4 mph23.2 kmh 29.97 in1014.9 mb 0.00 in0.0 mm 0.00 in0.0 mm 0.08 in2.0 mm
04:22 AM 62.8°F17.1°C 62.2°F16.8°C 98% 7.2 mph S11.6 kmh S 14.4 mph23.2 kmh 29.97 in1014.9 mb 0.00 in0.0 mm 0.00 in0.0 mm 0.08 in2.0 mm
04:27 AM 62.8°F17.1°C 62.2°F16.8°C 98% 7.5 mph SSW12.1 kmh SSW 14.8 mph23.8 kmh 29.97 in1014.9 mb 0.00 in0.0 mm 0.00 in0.0 mm 0.08 in2.0 mm
04:32 AM 62.9°F17.2°C 62.3°F16.8°C 98% 8.0 mph SSW12.9 kmh SSW 14.8 mph23.8 kmh 29.97 in1014.9 mb 0.00 in0.0 mm 0.00 in0.0 mm 0.08 in2.0 mm
04:37 AM 62.9°F17.2°C 62.3°F16.8°C 98% 7.7 mph SSW12.4 kmh SSW 12.6 mph20.3 kmh 29.97 in1014.9 mb 0.00 in0.0 mm 0.00 in0.0 mm 0.08 in2.0 mm
04:42 AM 63.1°F17.3°C 62.5°F16.9°C 98% 7.7 mph SSW12.4 kmh SSW 12.0 mph19.3 kmh 29.97 in1014.9 mb 0.00 in0.0 mm 0.00 in0.0 mm 0.08 in2.0 mm
04:47 AM 63.1°F17.3°C 62.5°F16.9°C 98% 6.3 mph S10.1 kmh S 12.0 mph19.3 kmh 29.97 in1014.9 mb 0.00 in0.0 mm 0.00 in0.0 mm 0.08 in2.0 mm
04:53 AM 63.1°F17.3°C 62.5°F16.9°C 98% 7.7 mph S12.4 kmh S 11.2 mph18.0 kmh 29.97 in1014.9 mb 0.00 in0.0 mm 0.00 in0.0 mm 0.08 in2.0 mm
04:58 AM 63.3°F17.4°C 62.7°F17.1°C 98% 8.4 mph S13.5 kmh S 11.6 mph18.7 kmh 29.97 in1014.9 mb 0.00 in0.0 mm 0.00 in0.0 mm 0.08 in2.0 mm
05:03 AM 63.3°F17.4°C 62.7°F17.1°C 98% 6.6 mph S10.6 kmh S 13.8 mph22.2 kmh 29.97 in1014.9 mb 0.00 in0.0 mm 0.00 in0.0 mm 0.08 in2.0 mm
05:08 AM 63.3°F17.4°C 62.7°F17.1°C 98% 9.4 mph S15.1 kmh S 13.8 mph22.2 kmh 29.97 in1014.9 mb 0.00 in0.0 mm 0.00 in0.0 mm 0.08 in2.0 mm
05:13 AM 63.3°F17.4°C 62.7°F17.1°C 98% 6.3 mph S10.1 kmh S 13.0 mph20.9 kmh 29.97 in1014.9 mb 0.00 in0.0 mm 0.00 in0.0 mm 0.08 in2.0 mm
05:18 AM 63.3°F17.4°C 62.7°F17.1°C 98% 7.8 mph SSW12.6 kmh SSW 11.6 mph18.7 kmh 29.97 in1014.9 mb 0.00 in0.0 mm 0.00 in0.0 mm 0.08 in2.0 mm
05:23 AM 63.5°F17.5°C 62.9°F17.2°C 98% 7.0 mph S11.3 kmh S 11.6 mph18.7 kmh 29.97 in1014.9 mb 0.00 in0.0 mm 0.00 in0.0 mm 0.08 in2.0 mm
05:28 AM 63.5°F17.5°C 62.9°F17.2°C 98% 6.4 mph SW10.3 kmh SW 11.6 mph18.7 kmh 29.94 in1013.9 mb 0.00 in0.0 mm 0.00 in0.0 mm 0.08 in2.0 mm
05:34 AM 63.7°F17.6°C 63.1°F17.3°C 98% 5.9 mph SSW9.5 kmh SSW 11.6 mph18.7 kmh 29.94 in1013.9 mb 0.00 in0.0 mm 0.00 in0.0 mm 0.08 in2.0 mm
05:39 AM 63.7°F17.6°C 63.1°F17.3°C 98% 8.2 mph S13.2 kmh S 14.8 mph23.8 kmh 29.94 in1013.9 mb 0.00 in0.0 mm 0.00 in0.0 mm 0.08 in2.0 mm
05:44 AM 63.8°F17.7°C 63.2°F17.3°C 98% 6.3 mph SW10.1 kmh SW 14.8 mph23.8 kmh 30.00 in1015.9 mb 0.00 in0.0 mm 0.00 in0.0 mm 0.08 in2.0 mm
05:49 AM 63.8°F17.7°C 63.2°F17.3°C 98% 8.6 mph S13.8 kmh S 13.0 mph20.9 kmh 30.00 in1015.9 mb 0.00 in0.0 mm 0.00 in0.0 mm 0.08 in2.0 mm
05:54 AM 63.7°F17.6°C 63.1°F17.3°C 98% 7.3 mph SSW11.7 kmh SSW 13.0 mph20.9 kmh 30.00 in1015.9 mb 0.00 in0.0 mm 0.00 in0.0 mm 0.08 in2.0 mm
05:59 AM 63.7°F17.6°C 63.1°F17.3°C 98% 6.8 mph S10.9 kmh S 8.6 mph13.8 kmh 29.97 in1014.9 mb 0.00 in0.0 mm 0.00 in0.0 mm 0.08 in2.0 mm
06:04 AM 63.7°F17.6°C 63.1°F17.3°C 98% 9.2 mph SSW14.8 kmh SSW 13.0 mph20.9 kmh 29.97 in1014.9 mb 0.00 in0.0 mm 0.00 in0.0 mm 0.08 in2.0 mm
06:10 AM 63.7°F17.6°C 63.1°F17.3°C 98% 5.6 mph SSW9.0 kmh SSW 17.4 mph28.0 kmh 29.97 in1014.9 mb 0.00 in0.0 mm 0.00 in0.0 mm 0.08 in2.0 mm
06:15 AM 63.7°F17.6°C 63.1°F17.3°C 98% 5.7 mph SSW9.2 kmh SSW 17.4 mph28.0 kmh 29.97 in1014.9 mb 0.00 in0.0 mm 0.00 in0.0 mm 0.08 in2.0 mm
06:20 AM 63.7°F17.6°C 63.1°F17.3°C 98% 8.8 mph S14.2 kmh S 12.0 mph19.3 kmh 29.97 in1014.9 mb 0.00 in0.0 mm 0.00 in0.0 mm 0.08 in2.0 mm
06:26 AM 64.0°F17.8°C 63.4°F17.4°C 98% 5.5 mph SSW8.9 kmh SSW 14.4 mph23.2 kmh 29.97 in1014.9 mb 0.00 in0.0 mm 0.00 in0.0 mm 0.08 in2.0 mm
06:30 AM 64.0°F17.8°C 63.4°F17.4°C 98% 10.1 mph S16.3 kmh S 14.4 mph23.2 kmh 29.97 in1014.9 mb 0.00 in0.0 mm 0.00 in0.0 mm 0.08 in2.0 mm
06:36 AM 64.2°F17.9°C 63.6°F17.6°C 98% 8.3 mph SSW13.4 kmh SSW 14.4 mph23.2 kmh 29.97 in1014.9 mb 0.00 in0.0 mm 0.00 in0.0 mm 0.08 in2.0 mm
06:41 AM 64.4°F18.0°C 63.8°F17.7°C 98% 7.1 mph SW11.4 kmh SW 13.0 mph20.9 kmh 29.97 in1014.9 mb 0.00 in0.0 mm 0.00 in0.0 mm 0.08 in2.0 mm
06:46 AM 64.4°F18.0°C 63.8°F17.7°C 98% 5.9 mph SW9.5 kmh SW 12.6 mph20.3 kmh 29.97 in1014.9 mb 0.00 in0.0 mm 0.00 in0.0 mm 0.08 in2.0 mm
06:51 AM 64.4°F18.0°C 63.8°F17.7°C 98% 7.0 mph SW11.3 kmh SW 12.6 mph20.3 kmh 29.97 in1014.9 mb 0.00 in0.0 mm 0.00 in0.0 mm 0.08 in2.0 mm
06:56 AM 64.4°F18.0°C 63.8°F17.7°C 98% 6.5 mph SW10.5 kmh SW 12.0 mph19.3 kmh 29.97 in1014.9 mb 0.00 in0.0 mm 0.00 in0.0 mm 0.08 in2.0 mm
07:01 AM 64.4°F18.0°C 63.8°F17.7°C 98% 7.0 mph SW11.3 kmh SW 11.6 mph18.7 kmh 29.97 in1014.9 mb 0.00 in0.0 mm 0.00 in0.0 mm 0.08 in2.0 mm
07:06 AM 64.4°F18.0°C 63.8°F17.7°C 98% 7.1 mph S11.4 kmh S 11.6 mph18.7 kmh 29.97 in1014.9 mb 0.00 in0.0 mm 0.00 in0.0 mm 0.08 in2.0 mm
07:11 AM 64.6°F18.1°C 64.0°F17.8°C 98% 7.3 mph SSW11.7 kmh SSW 12.0 mph19.3 kmh 29.97 in1014.9 mb 0.00 in0.0 mm 0.00 in0.0 mm 0.08 in2.0 mm
07:16 AM 64.6°F18.1°C 64.0°F17.8°C 98% 8.1 mph SSW13.0 kmh SSW 12.6 mph20.3 kmh 29.97 in1014.9 mb 0.00 in0.0 mm 0.00 in0.0 mm 0.08 in2.0 mm
07:21 AM 64.6°F18.1°C 64.0°F17.8°C 98% 4.9 mph S7.9 kmh S 12.6 mph20.3 kmh 29.97 in1014.9 mb 0.00 in0.0 mm 0.00 in0.0 mm 0.08 in2.0 mm
07:26 AM 64.6°F18.1°C 64.0°F17.8°C 98% 8.5 mph S13.7 kmh S 12.6 mph20.3 kmh 29.97 in1014.9 mb 0.00 in0.0 mm 0.00 in0.0 mm 0.08 in2.0 mm
07:31 AM 64.6°F18.1°C 64.0°F17.8°C 98% 6.5 mph SSW10.5 kmh SSW 12.6 mph20.3 kmh 29.97 in1014.9 mb 0.00 in0.0 mm 0.00 in0.0 mm 0.08 in2.0 mm
07:36 AM 64.6°F18.1°C 64.0°F17.8°C 98% 8.0 mph S12.9 kmh S 17.4 mph28.0 kmh 29.97 in1014.9 mb 0.00 in0.0 mm 0.00 in0.0 mm 0.08 in2.0 mm
07:41 AM 64.6°F18.1°C 64.0°F17.8°C 98% 9.2 mph SSW14.8 kmh SSW 17.4 mph28.0 kmh 29.97 in1014.9 mb 0.00 in0.0 mm 0.00 in0.0 mm 0.08 in2.0 mm
07:46 AM 64.6°F18.1°C 64.0°F17.8°C 98% 5.9 mph S9.5 kmh S 14.8 mph23.8 kmh 30.00 in1015.9 mb 0.00 in0.0 mm 0.00 in0.0 mm 0.08 in2.0 mm
07:51 AM 64.6°F18.1°C 64.0°F17.8°C 98% 5.0 mph SW8.0 kmh SW 9.8 mph15.8 kmh 30.00 in1015.9 mb 0.00 in0.0 mm 0.00 in0.0 mm 0.08 in2.0 mm
07:57 AM 64.6°F18.1°C 64.0°F17.8°C 98% 5.9 mph SW9.5 kmh SW 11.6 mph18.7 kmh 30.00 in1015.9 mb 0.00 in0.0 mm 0.00 in0.0 mm 0.08 in2.0 mm
08:02 AM 64.6°F18.1°C 64.0°F17.8°C 98% 6.5 mph SSW10.5 kmh SSW 11.6 mph18.7 kmh 30.00 in1015.9 mb 0.00 in0.0 mm 0.00 in0.0 mm 0.08 in2.0 mm
08:07 AM 64.7°F18.2°C 64.1°F17.8°C 98% 8.7 mph SSW14.0 kmh SSW 14.4 mph23.2 kmh 30.00 in1015.9 mb 0.00 in0.0 mm 0.00 in0.0 mm 0.08 in2.0 mm
08:12 AM 64.7°F18.2°C 64.1°F17.8°C 98% 6.5 mph SSW10.5 kmh SSW 14.4 mph23.2 kmh 30.00 in1015.9 mb 0.00 in0.0 mm 0.00 in0.0 mm 0.08 in2.0 mm
08:18 AM 64.7°F18.2°C 64.1°F17.8°C 98% 7.7 mph SSW12.4 kmh SSW 11.2 mph18.0 kmh 30.00 in1015.9 mb 0.00 in0.0 mm 0.00 in0.0 mm 0.08 in2.0 mm
08:23 AM 64.6°F18.1°C 64.0°F17.8°C 98% 4.9 mph SSW7.9 kmh SSW 9.8 mph15.8 kmh 30.00 in1015.9 mb 0.00 in0.0 mm 0.00 in0.0 mm 0.08 in2.0 mm
08:28 AM 64.6°F18.1°C 64.0°F17.8°C 98% 6.0 mph S9.7 kmh S 9.8 mph15.8 kmh 30.00 in1015.9 mb 0.00 in0.0 mm 0.00 in0.0 mm 0.08 in2.0 mm
08:33 AM 64.6°F18.1°C 64.0°F17.8°C 98% 6.7 mph SSW10.8 kmh SSW 14.4 mph23.2 kmh 30.00 in1015.9 mb 0.00 in0.0 mm 0.00 in0.0 mm 0.08 in2.0 mm
08:40 AM 64.6°F18.1°C 64.0°F17.8°C 98% 6.0 mph SW9.7 kmh SW 14.4 mph23.2 kmh 30.00 in1015.9 mb 0.00 in0.0 mm 0.00 in0.0 mm 0.08 in2.0 mm
08:45 AM 64.6°F18.1°C 64.0°F17.8°C 98% 7.8 mph SSW12.6 kmh SSW 11.2 mph18.0 kmh 30.00 in1015.9 mb 0.00 in0.0 mm 0.00 in0.0 mm 0.08 in2.0 mm
08:51 AM 64.6°F18.1°C 64.0°F17.8°C 98% 5.9 mph SW9.5 kmh SW 10.8 mph17.4 kmh 30.00 in1015.9 mb 0.00 in0.0 mm 0.00 in0.0 mm 0.08 in2.0 mm
08:56 AM 64.6°F18.1°C 64.0°F17.8°C 98% 7.1 mph SW11.4 kmh SW 11.6 mph18.7 kmh 30.00 in1015.9 mb 0.00 in0.0 mm 0.00 in0.0 mm 0.08 in2.0 mm
09:01 AM 64.6°F18.1°C 64.0°F17.8°C 98% 5.5 mph S8.9 kmh S 11.6 mph18.7 kmh 30.00 in1015.9 mb 0.00 in0.0 mm 0.00 in0.0 mm 0.08 in2.0 mm
09:06 AM 64.6°F18.1°C 64.0°F17.8°C 98% 7.1 mph S11.4 kmh S 13.0 mph20.9 kmh 30.00 in1015.9 mb 0.00 in0.0 mm 0.00 in0.0 mm 0.08 in2.0 mm
09:11 AM 64.4°F18.0°C 63.8°F17.7°C 98% 5.8 mph SSW9.3 kmh SSW 13.0 mph20.9 kmh 30.00 in1015.9 mb 0.00 in0.0 mm 0.00 in0.0 mm 0.08 in2.0 mm
09:16 AM 64.2°F17.9°C 63.6°F17.6°C 98% 7.6 mph SSW12.2 kmh SSW 9.8 mph15.8 kmh 30.00 in1015.9 mb 0.04 in1.0 mm 0.48 in12.2 mm 0.12 in3.0 mm
09:21 AM 64.0°F17.8°C 63.4°F17.4°C 98% 6.2 mph S10.0 kmh S 11.2 mph18.0 kmh 30.00 in1015.9 mb 0.04 in1.0 mm 0.00 in0.0 mm 0.12 in3.0 mm
09:26 AM 64.2°F17.9°C 63.6°F17.6°C 98% 9.6 mph SSW15.4 kmh SSW 13.0 mph20.9 kmh 30.00 in1015.9 mb 0.04 in1.0 mm 0.00 in0.0 mm 0.12 in3.0 mm
09:32 AM 64.2°F17.9°C 63.6°F17.6°C 98% 8.6 mph SSW13.8 kmh SSW 15.2 mph24.5 kmh 30.00 in1015.9 mb 0.04 in1.0 mm 0.00 in0.0 mm 0.12 in3.0 mm
09:37 AM 64.2°F17.9°C 63.6°F17.6°C 98% 7.9 mph SSW12.7 kmh SSW 15.2 mph24.5 kmh 30.00 in1015.9 mb 0.04 in1.0 mm 0.00 in0.0 mm 0.12 in3.0 mm
09:42 AM 64.2°F17.9°C 63.6°F17.6°C 98% 6.8 mph SSW10.9 kmh SSW 12.6 mph20.3 kmh 30.00 in1015.9 mb 0.04 in1.0 mm 0.00 in0.0 mm 0.12 in3.0 mm
09:47 AM 64.2°F17.9°C 63.6°F17.6°C 98% 6.6 mph SW10.6 kmh SW 12.0 mph19.3 kmh 30.00 in1015.9 mb 0.04 in1.0 mm 0.00 in0.0 mm 0.12 in3.0 mm
09:52 AM 64.0°F17.8°C 63.4°F17.4°C 98% 6.0 mph SW9.7 kmh SW 12.0 mph19.3 kmh 30.00 in1015.9 mb 0.04 in1.0 mm 0.00 in0.0 mm 0.12 in3.0 mm
09:57 AM 64.0°F17.8°C 63.4°F17.4°C 98% 6.5 mph SSW10.5 kmh SSW 13.0 mph20.9 kmh 30.00 in1015.9 mb 0.04 in1.0 mm 0.00 in0.0 mm 0.12 in3.0 mm
10:03 AM 64.2°F17.9°C 63.6°F17.6°C 98% 7.0 mph S11.3 kmh S 13.0 mph20.9 kmh 30.00 in1015.9 mb 0.00 in0.0 mm 0.00 in0.0 mm 0.12 in3.0 mm
10:08 AM 64.2°F17.9°C 63.6°F17.6°C 98% 5.8 mph SW9.3 kmh SW 16.2 mph26.1 kmh 30.00 in1015.9 mb 0.00 in0.0 mm 0.00 in0.0 mm 0.12 in3.0 mm
10:13 AM 64.2°F17.9°C 63.6°F17.6°C 98% 7.3 mph SW11.7 kmh SW 16.2 mph26.1 kmh 30.03 in1016.9 mb 0.00 in0.0 mm 0.00 in0.0 mm 0.12 in3.0 mm
10:18 AM 64.4°F18.0°C 63.8°F17.7°C 98% 7.0 mph SW11.3 kmh SW 10.8 mph17.4 kmh 30.03 in1016.9 mb 0.00 in0.0 mm 0.00 in0.0 mm 0.12 in3.0 mm
10:23 AM 64.6°F18.1°C 64.0°F17.8°C 98% 7.4 mph SW11.9 kmh SW 14.8 mph23.8 kmh 30.03 in1016.9 mb 0.00 in0.0 mm 0.00 in0.0 mm 0.12 in3.0 mm
10:28 AM 64.9°F18.3°C 64.3°F17.9°C 98% 6.6 mph SSW10.6 kmh SSW 14.8 mph23.8 kmh 30.03 in1016.9 mb 0.00 in0.0 mm 0.00 in0.0 mm 0.12 in3.0 mm
10:33 AM 64.9°F18.3°C 64.3°F17.9°C 98% 8.6 mph S13.8 kmh S 15.2 mph24.5 kmh 30.03 in1016.9 mb 0.00 in0.0 mm 0.00 in0.0 mm 0.12 in3.0 mm
10:38 AM 65.1°F18.4°C 64.5°F18.1°C 98% 7.7 mph SSW12.4 kmh SSW 15.2 mph24.5 kmh 30.03 in1016.9 mb 0.00 in0.0 mm 0.00 in0.0 mm 0.12 in3.0 mm
10:44 AM 65.1°F18.4°C 64.5°F18.1°C 98% 5.8 mph SW9.3 kmh SW 9.8 mph15.8 kmh 30.06 in1017.9 mb 0.00 in0.0 mm 0.00 in0.0 mm 0.12 in3.0 mm
10:49 AM 65.1°F18.4°C 64.5°F18.1°C 98% 8.7 mph SSW14.0 kmh SSW 12.6 mph20.3 kmh 30.06 in1017.9 mb 0.00 in0.0 mm 0.00 in0.0 mm 0.12 in3.0 mm
10:54 AM 65.1°F18.4°C 64.5°F18.1°C 98% 7.2 mph SSW11.6 kmh SSW 12.6 mph20.3 kmh 30.06 in1017.9 mb 0.00 in0.0 mm 0.00 in0.0 mm 0.12 in3.0 mm
10:59 AM 65.1°F18.4°C 64.5°F18.1°C 98% 7.7 mph SSW12.4 kmh SSW 14.4 mph23.2 kmh 30.00 in1015.9 mb 0.00 in0.0 mm 0.00 in0.0 mm 0.12 in3.0 mm
11:04 AM 65.3°F18.5°C 64.7°F18.2°C 98% 8.4 mph S13.5 kmh S 14.4 mph23.2 kmh 30.00 in1015.9 mb 0.00 in0.0 mm 0.00 in0.0 mm 0.12 in3.0 mm
11:09 AM 65.3°F18.5°C 64.7°F18.2°C 98% 7.5 mph SSW12.1 kmh SSW 20.2 mph32.5 kmh 30.00 in1015.9 mb 0.00 in0.0 mm 0.00 in0.0 mm 0.12 in3.0 mm
11:14 AM 65.3°F18.5°C 64.7°F18.2°C 98% 9.6 mph S15.4 kmh S 20.2 mph32.5 kmh 30.00 in1015.9 mb 0.00 in0.0 mm 0.00 in0.0 mm 0.12 in3.0 mm
11:19 AM 65.5°F18.6°C 64.9°F18.3°C 98% 6.6 mph S10.6 kmh S 20.6 mph33.2 kmh 30.00 in1015.9 mb 0.00 in0.0 mm 0.00 in0.0 mm 0.12 in3.0 mm
11:24 AM 65.5°F18.6°C 64.9°F18.3°C 98% 6.2 mph SSW10.0 kmh SSW 20.6 mph33.2 kmh 30.00 in1015.9 mb 0.00 in0.0 mm 0.00 in0.0 mm 0.12 in3.0 mm
11:29 AM 65.5°F18.6°C 64.9°F18.3°C 98% 6.1 mph SSW9.8 kmh SSW 20.6 mph33.2 kmh 30.00 in1015.9 mb 0.00 in0.0 mm 0.00 in0.0 mm 0.12 in3.0 mm
11:35 AM 65.6°F18.7°C 65.0°F18.3°C 98% 5.8 mph SSW9.3 kmh SSW 13.0 mph20.9 kmh 30.00 in1015.9 mb 0.00 in0.0 mm 0.00 in0.0 mm 0.12 in3.0 mm
11:40 AM 66.0°F18.9°C 65.1°F18.4°C 97% 8.1 mph SSW13.0 kmh SSW 13.0 mph20.9 kmh 30.00 in1015.9 mb 0.00 in0.0 mm 0.00 in0.0 mm 0.12 in3.0 mm
11:45 AM 66.7°F19.3°C 65.8°F18.8°C 97% 5.5 mph S8.9 kmh S 12.0 mph19.3 kmh 29.97 in1014.9 mb 0.00 in0.0 mm 0.00 in0.0 mm 0.12 in3.0 mm
11:50 AM 67.1°F19.5°C 65.9°F18.8°C 96% 8.8 mph SSW14.2 kmh SSW 12.0 mph19.3 kmh 29.97 in1014.9 mb 0.00 in0.0 mm 0.00 in0.0 mm 0.12 in3.0 mm
11:55 AM 67.1°F19.5°C 65.6°F18.7°C 95% 8.1 mph SW13.0 kmh SW 12.0 mph19.3 kmh 29.97 in1014.9 mb 0.00 in0.0 mm 0.00 in0.0 mm 0.12 in3.0 mm
12:00 PM 67.1°F19.5°C 65.3°F18.5°C 94% 6.7 mph S10.8 kmh S 21.0 mph33.8 kmh 29.97 in1014.9 mb 0.00 in0.0 mm 0.00 in0.0 mm 0.12 in3.0 mm
12:05 PM 67.3°F19.6°C 65.8°F18.8°C 95% 6.2 mph SW10.0 kmh SW 21.0 mph33.8 kmh 29.97 in1014.9 mb 0.00 in0.0 mm 0.00 in0.0 mm 0.12 in3.0 mm
12:10 PM 67.1°F19.5°C 65.3°F18.5°C 94% 9.9 mph SSW15.9 kmh SSW 15.2 mph24.5 kmh 29.97 in1014.9 mb 0.00 in0.0 mm 0.00 in0.0 mm 0.12 in3.0 mm
12:15 PM 67.1°F19.5°C 65.3°F18.5°C 94% 7.3 mph SW11.7 kmh SW 15.2 mph24.5 kmh 29.97 in1014.9 mb 0.00 in0.0 mm 0.00 in0.0 mm 0.12 in3.0 mm
12:20 PM 67.1°F19.5°C 65.3°F18.5°C 94% 11.2 mph SSW18.0 kmh SSW 17.0 mph27.4 kmh 29.97 in1014.9 mb 0.00 in0.0 mm 0.00 in0.0 mm 0.12 in3.0 mm
12:25 PM 67.1°F19.5°C 65.6°F18.7°C 95% 7.2 mph SSW11.6 kmh SSW 17.0 mph27.4 kmh 29.97 in1014.9 mb 0.00 in0.0 mm 0.00 in0.0 mm 0.12 in3.0 mm
12:30 PM 67.3°F19.6°C 65.8°F18.8°C 95% 8.2 mph S13.2 kmh S 17.4 mph28.0 kmh 29.97 in1014.9 mb 0.00 in0.0 mm 0.00 in0.0 mm 0.12 in3.0 mm
12:36 PM 67.4°F19.7°C 65.9°F18.8°C 95% 6.7 mph SSW10.8 kmh SSW 17.4 mph28.0 kmh 29.97 in1014.9 mb 0.00 in0.0 mm 0.00 in0.0 mm 0.12 in3.0 mm
12:41 PM 68.0°F20.0°C 65.9°F18.8°C 93% 7.5 mph SSW12.1 kmh SSW 15.2 mph24.5 kmh 29.97 in1014.9 mb 0.00 in0.0 mm 0.00 in0.0 mm 0.12 in3.0 mm
12:46 PM 68.2°F20.1°C 65.8°F18.8°C 92% 8.7 mph SSW14.0 kmh SSW 17.0 mph27.4 kmh 29.94 in1013.9 mb 0.00 in0.0 mm 0.00 in0.0 mm 0.12 in3.0 mm
12:51 PM 68.3°F20.2°C 65.9°F18.8°C 92% 6.8 mph SSW10.9 kmh SSW 17.0 mph27.4 kmh 29.94 in1013.9 mb 0.00 in0.0 mm 0.00 in0.0 mm 0.12 in3.0 mm
12:56 PM 68.5°F20.3°C 65.8°F18.8°C 91% 5.8 mph S9.3 kmh S 14.8 mph23.8 kmh 29.94 in1013.9 mb 0.00 in0.0 mm 0.00 in0.0 mm 0.12 in3.0 mm
01:01 PM 68.5°F20.3°C 65.5°F18.6°C 90% 12.5 mph S20.1 kmh S 18.4 mph29.6 kmh 29.97 in1014.9 mb 0.00 in0.0 mm 0.00 in0.0 mm 0.12 in3.0 mm
01:06 PM 68.3°F20.2°C 65.3°F18.5°C 90% 8.2 mph SSW13.2 kmh SSW 18.4 mph29.6 kmh 29.97 in1014.9 mb 0.00 in0.0 mm 0.00 in0.0 mm 0.12 in3.0 mm
01:11 PM 68.3°F20.2°C 65.3°F18.5°C 90% 7.5 mph SW12.1 kmh SW 15.2 mph24.5 kmh 29.97 in1014.9 mb 0.00 in0.0 mm 0.00 in0.0 mm 0.12 in3.0 mm
01:16 PM 68.2°F20.1°C 64.8°F18.2°C 89% 8.5 mph SW13.7 kmh SW 16.2 mph26.1 kmh 29.97 in1014.9 mb 0.00 in0.0 mm 0.00 in0.0 mm 0.12 in3.0 mm
01:21 PM 68.2°F20.1°C 64.5°F18.1°C 88% 11.9 mph SW19.2 kmh SW 16.2 mph26.1 kmh 29.97 in1014.9 mb 0.00 in0.0 mm 0.00 in0.0 mm 0.12 in3.0 mm
01:26 PM 68.0°F20.0°C 64.7°F18.2°C 89% 9.0 mph SW14.5 kmh SW 16.2 mph26.1 kmh 29.97 in1014.9 mb 0.00 in0.0 mm 0.00 in0.0 mm 0.12 in3.0 mm
01:31 PM 67.8°F19.9°C 64.5°F18.1°C 89% 6.8 mph SSW10.9 kmh SSW 16.2 mph26.1 kmh 29.94 in1013.9 mb 0.00 in0.0 mm 0.00 in0.0 mm 0.12 in3.0 mm
01:37 PM 68.0°F20.0°C 64.7°F18.2°C 89% 8.1 mph SSW13.0 kmh SSW 12.6 mph20.3 kmh 29.94 in1013.9 mb 0.00 in0.0 mm 0.00 in0.0 mm 0.12 in3.0 mm
01:42 PM 68.2°F20.1°C 64.8°F18.2°C 89% 8.6 mph SW13.8 kmh SW 14.4 mph23.2 kmh 29.94 in1013.9 mb 0.00 in0.0 mm 0.00 in0.0 mm 0.12 in3.0 mm
01:47 PM 68.3°F20.2°C 64.3°F17.9°C 87% 10.9 mph SSW17.5 kmh SSW 20.6 mph33.2 kmh 30.00 in1015.9 mb 0.00 in0.0 mm 0.00 in0.0 mm 0.12 in3.0 mm
01:52 PM 68.3°F20.2°C 64.3°F17.9°C 87% 8.0 mph SW12.9 kmh SW 20.6 mph33.2 kmh 30.00 in1015.9 mb 0.00 in0.0 mm 0.00 in0.0 mm 0.12 in3.0 mm
01:57 PM 68.2°F20.1°C 64.2°F17.9°C 87% 10.8 mph SSW17.4 kmh SSW 20.6 mph33.2 kmh 30.00 in1015.9 mb 0.00 in0.0 mm 0.00 in0.0 mm 0.12 in3.0 mm
02:02 PM 68.2°F20.1°C 64.5°F18.1°C 88% 8.9 mph SSW14.3 kmh SSW 20.6 mph33.2 kmh 29.97 in1014.9 mb 0.00 in0.0 mm 0.00 in0.0 mm 0.12 in3.0 mm
02:07 PM 68.2°F20.1°C 64.5°F18.1°C 88% 8.9 mph SSW14.3 kmh SSW 20.6 mph33.2 kmh 29.97 in1014.9 mb 0.00 in0.0 mm 0.00 in0.0 mm 0.12 in3.0 mm
02:12 PM 68.3°F20.2°C 64.0°F17.8°C 86% 10.1 mph SW16.3 kmh SW 16.2 mph26.1 kmh 29.97 in1014.9 mb 0.00 in0.0 mm 0.00 in0.0 mm 0.12 in3.0 mm
02:17 PM 68.3°F20.2°C 64.3°F17.9°C 87% 9.4 mph SW15.1 kmh SW 15.2 mph24.5 kmh 29.97 in1014.9 mb 0.00 in0.0 mm 0.00 in0.0 mm 0.12 in3.0 mm
02:22 PM 68.2°F20.1°C 63.9°F17.7°C 86% 9.6 mph SSW15.4 kmh SSW 15.2 mph24.5 kmh 29.97 in1014.9 mb 0.00 in0.0 mm 0.00 in0.0 mm 0.12 in3.0 mm
02:29 PM 68.0°F20.0°C 64.0°F17.8°C 87% 8.1 mph SW13.0 kmh SW 15.2 mph24.5 kmh 29.97 in1014.9 mb 0.00 in0.0 mm 0.00 in0.0 mm 0.12 in3.0 mm
02:59 PM 68.5°F20.3°C 64.2°F17.9°C 86% 8.7 mph SW14.0 kmh SW 13.4 mph21.6 kmh 29.97 in1014.9 mb 0.00 in0.0 mm 0.00 in0.0 mm 0.12 in3.0 mm
03:06 PM 68.3°F20.2°C 64.0°F17.8°C 86% 9.2 mph SW14.8 kmh SW 17.4 mph28.0 kmh 29.97 in1014.9 mb 0.00 in0.0 mm 0.00 in0.0 mm 0.12 in3.0 mm
03:11 PM 68.2°F20.1°C 63.9°F17.7°C 86% 8.0 mph SSW12.9 kmh SSW 17.4 mph28.0 kmh 29.97 in1014.9 mb 0.00 in0.0 mm 0.00 in0.0 mm 0.12 in3.0 mm
03:16 PM 68.2°F20.1°C 63.9°F17.7°C 86% 7.7 mph SSW12.4 kmh SSW 10.8 mph17.4 kmh 29.97 in1014.9 mb 0.00 in0.0 mm 0.00 in0.0 mm 0.12 in3.0 mm
03:21 PM 68.0°F20.0°C 64.0°F17.8°C 87% 7.7 mph SW12.4 kmh SW 12.0 mph19.3 kmh 29.97 in1014.9 mb 0.00 in0.0 mm 0.00 in0.0 mm 0.12 in3.0 mm
03:26 PM 68.2°F20.1°C 64.5°F18.1°C 88% 8.3 mph S13.4 kmh S 12.6 mph20.3 kmh 29.97 in1014.9 mb 0.00 in0.0 mm 0.00 in0.0 mm 0.12 in3.0 mm
03:31 PM 68.2°F20.1°C 64.2°F17.9°C 87% 10.1 mph SW16.3 kmh SW 16.2 mph26.1 kmh 29.97 in1014.9 mb 0.00 in0.0 mm 0.00 in0.0 mm 0.12 in3.0 mm
03:36 PM 68.0°F20.0°C 64.0°F17.8°C 87% 7.4 mph S11.9 kmh S 16.2 mph26.1 kmh 29.97 in1014.9 mb 0.00 in0.0 mm 0.00 in0.0 mm 0.12 in3.0 mm
03:41 PM 68.0°F20.0°C 64.3°F17.9°C 88% 8.3 mph SSW13.4 kmh SSW 12.0 mph19.3 kmh 29.97 in1014.9 mb 0.00 in0.0 mm 0.00 in0.0 mm 0.12 in3.0 mm
03:46 PM 67.6°F19.8°C 64.6°F18.1°C 90% 7.8 mph SW12.6 kmh SW 17.0 mph27.4 kmh 29.97 in1014.9 mb 0.00 in0.0 mm 0.00 in0.0 mm 0.12 in3.0 mm
03:51 PM 67.4°F19.7°C 64.4°F18.0°C 90% 9.2 mph SSW14.8 kmh SSW 17.0 mph27.4 kmh 29.97 in1014.9 mb 0.00 in0.0 mm 0.00 in0.0 mm 0.12 in3.0 mm
03:56 PM 67.8°F19.9°C 64.5°F18.1°C 89% 7.5 mph SSW12.1 kmh SSW 17.0 mph27.4 kmh 29.97 in1014.9 mb 0.00 in0.0 mm 0.00 in0.0 mm 0.12 in3.0 mm
04:01 PM 68.2°F20.1°C 64.2°F17.9°C 87% 7.6 mph SSW12.2 kmh SSW 16.2 mph26.1 kmh 29.97 in1014.9 mb 0.00 in0.0 mm 0.00 in0.0 mm 0.12 in3.0 mm
04:06 PM 68.3°F20.2°C 64.3°F17.9°C 87% 10.2 mph SW16.4 kmh SW 17.0 mph27.4 kmh 29.97 in1014.9 mb 0.00 in0.0 mm 0.00 in0.0 mm 0.12 in3.0 mm
04:11 PM 68.5°F20.3°C 64.5°F18.1°C 87% 7.6 mph SSW12.2 kmh SSW 17.0 mph27.4 kmh 29.97 in1014.9 mb 0.00 in0.0 mm 0.00 in0.0 mm 0.12 in3.0 mm
04:16 PM 68.5°F20.3°C 64.5°F18.1°C 87% 7.1 mph SSW11.4 kmh SSW 10.8 mph17.4 kmh 29.97 in1014.9 mb 0.00 in0.0 mm 0.00 in0.0 mm 0.12 in3.0 mm
04:21 PM 68.7°F20.4°C 64.7°F18.2°C 87% 10.3 mph SSW16.6 kmh SSW 12.6 mph20.3 kmh 29.97 in1014.9 mb 0.00 in0.0 mm 0.00 in0.0 mm 0.12 in3.0 mm
04:26 PM 68.5°F20.3°C 64.2°F17.9°C 86% 9.4 mph SW15.1 kmh SW 12.6 mph20.3 kmh 29.97 in1014.9 mb 0.00 in0.0 mm 0.00 in0.0 mm 0.12 in3.0 mm
04:32 PM 68.5°F20.3°C 64.2°F17.9°C 86% 6.8 mph S10.9 kmh S 12.6 mph20.3 kmh 29.97 in1014.9 mb 0.00 in0.0 mm 0.00 in0.0 mm 0.12 in3.0 mm
04:37 PM 68.5°F20.3°C 64.5°F18.1°C 87% 5.3 mph SW8.5 kmh SW 12.0 mph19.3 kmh 29.97 in1014.9 mb 0.00 in0.0 mm 0.00 in0.0 mm 0.12 in3.0 mm
04:42 PM 68.5°F20.3°C 64.2°F17.9°C 86% 9.2 mph SSW14.8 kmh SSW 15.6 mph25.1 kmh 29.97 in1014.9 mb 0.00 in0.0 mm 0.00 in0.0 mm 0.12 in3.0 mm
04:47 PM 68.5°F20.3°C 64.5°F18.1°C 87% 5.7 mph WSW9.2 kmh WSW 15.6 mph25.1 kmh 29.97 in1014.9 mb 0.00 in0.0 mm 0.00 in0.0 mm 0.12 in3.0 mm
04:52 PM 68.3°F20.2°C 64.0°F17.8°C 86% 6.8 mph SW10.9 kmh SW 10.8 mph17.4 kmh 29.97 in1014.9 mb 0.00 in0.0 mm 0.00 in0.0 mm 0.12 in3.0 mm
04:57 PM 68.3°F20.2°C 64.3°F17.9°C 87% 7.9 mph SW12.7 kmh SW 12.0 mph19.3 kmh 29.97 in1014.9 mb 0.00 in0.0 mm 0.00 in0.0 mm 0.12 in3.0 mm
05:02 PM 68.2°F20.1°C 64.2°F17.9°C 87% 7.7 mph SW12.4 kmh SW 12.0 mph19.3 kmh 29.97 in1014.9 mb 0.00 in0.0 mm 0.00 in0.0 mm 0.12 in3.0 mm
05:07 PM 68.0°F20.0°C 64.0°F17.8°C 87% 7.5 mph S12.1 kmh S 11.6 mph18.7 kmh 29.97 in1014.9 mb 0.00 in0.0 mm 0.00 in0.0 mm 0.12 in3.0 mm
05:12 PM 68.0°F20.0°C 64.3°F17.9°C 88% 6.3 mph SW10.1 kmh SW 12.6 mph20.3 kmh 29.97 in1014.9 mb 0.00 in0.0 mm 0.00 in0.0 mm 0.12 in3.0 mm
05:17 PM 67.8°F19.9°C 64.1°F17.8°C 88% 7.4 mph SW11.9 kmh SW 12.6 mph20.3 kmh 29.94 in1013.9 mb 0.00 in0.0 mm 0.00 in0.0 mm 0.12 in3.0 mm
05:22 PM 67.8°F19.9°C 64.5°F18.1°C 89% 6.2 mph SSW10.0 kmh SSW 12.6 mph20.3 kmh 29.94 in1013.9 mb 0.00 in0.0 mm 0.00 in0.0 mm 0.12 in3.0 mm
05:27 PM 67.8°F19.9°C 64.5°F18.1°C 89% 7.5 mph SSW12.1 kmh SSW 12.0 mph19.3 kmh 29.94 in1013.9 mb 0.00 in0.0 mm 0.00 in0.0 mm 0.12 in3.0 mm
05:32 PM 67.6°F19.8°C 64.3°F17.9°C 89% 6.0 mph SSW9.7 kmh SSW 12.6 mph20.3 kmh 29.97 in1014.9 mb 0.00 in0.0 mm 0.00 in0.0 mm 0.12 in3.0 mm
05:37 PM 67.4°F19.7°C 64.1°F17.8°C 89% 7.2 mph SW11.6 kmh SW 12.6 mph20.3 kmh 29.97 in1014.9 mb 0.00 in0.0 mm 0.00 in0.0 mm 0.12 in3.0 mm
05:42 PM 67.4°F19.7°C 64.4°F18.0°C 90% 7.7 mph SSW12.4 kmh SSW 13.0 mph20.9 kmh 29.97 in1014.9 mb 0.00 in0.0 mm 0.00 in0.0 mm 0.12 in3.0 mm
05:47 PM 67.3°F19.6°C 64.3°F17.9°C 90% 6.9 mph SSW11.1 kmh SSW 14.4 mph23.2 kmh 29.94 in1013.9 mb 0.00 in0.0 mm 0.00 in0.0 mm 0.12 in3.0 mm
05:52 PM 67.3°F19.6°C 64.3°F17.9°C 90% 8.3 mph SW13.4 kmh SW 17.8 mph28.6 kmh 29.94 in1013.9 mb 0.00 in0.0 mm 0.00 in0.0 mm 0.12 in3.0 mm
05:57 PM 67.1°F19.5°C 64.1°F17.8°C 90% 6.2 mph S10.0 kmh S 17.8 mph28.6 kmh 29.94 in1013.9 mb 0.00 in0.0 mm 0.00 in0.0 mm 0.12 in3.0 mm
06:02 PM 67.1°F19.5°C 64.1°F17.8°C 90% 5.6 mph S9.0 kmh S 11.2 mph18.0 kmh 29.97 in1014.9 mb 0.00 in0.0 mm 0.00 in0.0 mm 0.12 in3.0 mm
06:07 PM 67.1°F19.5°C 64.1°F17.8°C 90% 5.5 mph SSW8.9 kmh SSW 11.2 mph18.0 kmh 29.97 in1014.9 mb 0.00 in0.0 mm 0.00 in0.0 mm 0.12 in3.0 mm
06:12 PM 67.1°F19.5°C 64.1°F17.8°C 90% 7.2 mph SSW11.6 kmh SSW 10.8 mph17.4 kmh 29.97 in1014.9 mb 0.00 in0.0 mm 0.00 in0.0 mm 0.12 in3.0 mm
06:18 PM 66.9°F19.4°C 63.9°F17.7°C 90% 5.9 mph SW9.5 kmh SW 11.2 mph18.0 kmh 29.97 in1014.9 mb 0.00 in0.0 mm 0.00 in0.0 mm 0.12 in3.0 mm
06:22 PM 66.7°F19.3°C 63.7°F17.6°C 90% 5.4 mph SW8.7 kmh SW 11.2 mph18.0 kmh 29.97 in1014.9 mb 0.00 in0.0 mm 0.00 in0.0 mm 0.12 in3.0 mm
06:28 PM 66.7°F19.3°C 63.7°F17.6°C 90% 4.4 mph S7.1 kmh S 8.0 mph12.9 kmh 29.97 in1014.9 mb 0.00 in0.0 mm 0.00 in0.0 mm 0.12 in3.0 mm
06:33 PM 66.7°F19.3°C 63.7°F17.6°C 90% 6.4 mph SSW10.3 kmh SSW 13.0 mph20.9 kmh 29.97 in1014.9 mb 0.00 in0.0 mm 0.00 in0.0 mm 0.12 in3.0 mm
06:38 PM 66.5°F19.2°C 63.8°F17.7°C 91% 7.6 mph SW12.2 kmh SW 13.0 mph20.9 kmh 29.97 in1014.9 mb 0.00 in0.0 mm 0.00 in0.0 mm 0.12 in3.0 mm
06:43 PM 66.5°F19.2°C 63.8°F17.7°C 91% 7.4 mph SSW11.9 kmh SSW 12.6 mph20.3 kmh 30.00 in1015.9 mb 0.00 in0.0 mm 0.00 in0.0 mm 0.12 in3.0 mm
06:48 PM 66.5°F19.2°C 63.8°F17.7°C 91% 6.3 mph S10.1 kmh S 12.6 mph20.3 kmh 30.00 in1015.9 mb 0.00 in0.0 mm 0.00 in0.0 mm 0.12 in3.0 mm
06:53 PM 66.5°F19.2°C 63.8°F17.7°C 91% 6.1 mph SSW9.8 kmh SSW 8.6 mph13.8 kmh 30.00 in1015.9 mb 0.00 in0.0 mm 0.00 in0.0 mm 0.12 in3.0 mm
06:58 PM 66.5°F19.2°C 63.8°F17.7°C 91% 8.0 mph SSW12.9 kmh SSW 12.0 mph19.3 kmh 30.00 in1015.9 mb 0.00 in0.0 mm 0.00 in0.0 mm 0.12 in3.0 mm
07:03 PM 66.2°F19.0°C 63.5°F17.5°C 91% 4.9 mph SSW7.9 kmh SSW 12.0 mph19.3 kmh 30.00 in1015.9 mb 0.00 in0.0 mm 0.00 in0.0 mm 0.12 in3.0 mm
07:08 PM 66.2°F19.0°C 63.5°F17.5°C 91% 6.9 mph SSW11.1 kmh SSW 9.8 mph15.8 kmh 30.00 in1015.9 mb 0.00 in0.0 mm 0.00 in0.0 mm 0.12 in3.0 mm
07:13 PM 66.2°F19.0°C 63.5°F17.5°C 91% 6.7 mph SW10.8 kmh SW 11.2 mph18.0 kmh 30.00 in1015.9 mb 0.00 in0.0 mm 0.00 in0.0 mm 0.12 in3.0 mm
07:18 PM 66.0°F18.9°C 63.3°F17.4°C 91% 5.9 mph SSW9.5 kmh SSW 11.2 mph18.0 kmh 30.00 in1015.9 mb 0.00 in0.0 mm 0.00 in0.0 mm 0.12 in3.0 mm
07:23 PM 66.0°F18.9°C 63.3°F17.4°C 91% 6.9 mph SW11.1 kmh SW 13.0 mph20.9 kmh 30.00 in1015.9 mb 0.00 in0.0 mm 0.00 in0.0 mm 0.12 in3.0 mm
07:29 PM 65.8°F18.8°C 63.4°F17.4°C 92% 6.2 mph SSW10.0 kmh SSW 13.0 mph20.9 kmh 30.00 in1015.9 mb 0.00 in0.0 mm 0.00 in0.0 mm 0.12 in3.0 mm
07:34 PM 65.8°F18.8°C 63.4°F17.4°C 92% 5.8 mph SSW9.3 kmh SSW 11.6 mph18.7 kmh 30.00 in1015.9 mb 0.00 in0.0 mm 0.00 in0.0 mm 0.12 in3.0 mm
07:39 PM 65.8°F18.8°C 63.4°F17.4°C 92% 6.4 mph SW10.3 kmh SW 10.8 mph17.4 kmh 30.00 in1015.9 mb 0.00 in0.0 mm 0.00 in0.0 mm 0.12 in3.0 mm
07:44 PM 65.8°F18.8°C 63.4°F17.4°C 92% 5.3 mph SW8.5 kmh SW 10.8 mph17.4 kmh 30.03 in1016.9 mb 0.00 in0.0 mm 0.00 in0.0 mm 0.12 in3.0 mm
07:49 PM 66.0°F18.9°C 63.6°F17.6°C 92% 6.0 mph SSW9.7 kmh SSW 11.2 mph18.0 kmh 30.03 in1016.9 mb 0.00 in0.0 mm 0.00 in0.0 mm 0.12 in3.0 mm
07:54 PM 66.0°F18.9°C 63.6°F17.6°C 92% 6.1 mph SSW9.8 kmh SSW 12.0 mph19.3 kmh 30.03 in1016.9 mb 0.00 in0.0 mm 0.00 in0.0 mm 0.12 in3.0 mm
07:59 PM 66.0°F18.9°C 63.6°F17.6°C 92% 6.2 mph SSW10.0 kmh SSW 12.0 mph19.3 kmh 30.03 in1016.9 mb 0.00 in0.0 mm 0.00 in0.0 mm 0.12 in3.0 mm
08:04 PM 65.8°F18.8°C 63.4°F17.4°C 92% 5.4 mph SSW8.7 kmh SSW 8.6 mph13.8 kmh 30.03 in1016.9 mb 0.00 in0.0 mm 0.00 in0.0 mm 0.12 in3.0 mm
08:09 PM 65.8°F18.8°C 63.4°F17.4°C 92% 6.0 mph SW9.7 kmh SW 10.8 mph17.4 kmh 30.03 in1016.9 mb 0.00 in0.0 mm 0.00 in0.0 mm 0.12 in3.0 mm
08:14 PM 65.6°F18.7°C 63.2°F17.3°C 92% 4.6 mph SW7.4 kmh SW 10.8 mph17.4 kmh 30.03 in1016.9 mb 0.00 in0.0 mm 0.00 in0.0 mm 0.12 in3.0 mm
08:21 PM 65.6°F18.7°C 63.5°F17.5°C 93% 4.7 mph SSW7.6 kmh SSW 7.2 mph11.6 kmh 30.03 in1016.9 mb 0.00 in0.0 mm 0.00 in0.0 mm 0.12 in3.0 mm
08:26 PM 65.8°F18.8°C 63.7°F17.6°C 93% 6.5 mph SW10.5 kmh SW 11.6 mph18.7 kmh 30.03 in1016.9 mb 0.00 in0.0 mm 0.00 in0.0 mm 0.12 in3.0 mm
08:31 PM 65.6°F18.7°C 63.5°F17.5°C 93% 5.6 mph SW9.0 kmh SW 11.6 mph18.7 kmh 30.03 in1016.9 mb 0.00 in0.0 mm 0.00 in0.0 mm 0.12 in3.0 mm
08:36 PM 65.6°F18.7°C 63.5°F17.5°C 93% 5.8 mph SSW9.3 kmh SSW 9.8 mph15.8 kmh 30.03 in1016.9 mb 0.00 in0.0 mm 0.00 in0.0 mm 0.12 in3.0 mm
08:41 PM 65.6°F18.7°C 63.5°F17.5°C 93% 8.6 mph SSW13.8 kmh SSW 11.6 mph18.7 kmh 30.03 in1016.9 mb 0.00 in0.0 mm 0.00 in0.0 mm 0.12 in3.0 mm
08:46 PM 65.6°F18.7°C 63.5°F17.5°C 93% 6.8 mph SSW10.9 kmh SSW 11.6 mph18.7 kmh 30.03 in1016.9 mb 0.00 in0.0 mm 0.00 in0.0 mm 0.12 in3.0 mm
08:54 PM 65.6°F18.7°C 63.5°F17.5°C 93% 6.6 mph SSW10.6 kmh SSW 11.2 mph18.0 kmh 30.03 in1016.9 mb 0.00 in0.0 mm 0.00 in0.0 mm 0.12 in3.0 mm
08:59 PM 65.5°F18.6°C 63.4°F17.4°C 93% 5.7 mph SW9.2 kmh SW 10.8 mph17.4 kmh 30.03 in1016.9 mb 0.00 in0.0 mm 0.00 in0.0 mm 0.12 in3.0 mm
09:04 PM 65.3°F18.5°C 63.2°F17.3°C 93% 5.0 mph SSW8.0 kmh SSW 8.0 mph12.9 kmh 30.03 in1016.9 mb 0.00 in0.0 mm 0.00 in0.0 mm 0.12 in3.0 mm
09:09 PM 65.3°F18.5°C 63.2°F17.3°C 93% 6.5 mph SW10.5 kmh SW 9.8 mph15.8 kmh 30.03 in1016.9 mb 0.00 in0.0 mm 0.00 in0.0 mm 0.12 in3.0 mm
09:14 PM 65.3°F18.5°C 63.2°F17.3°C 93% 4.5 mph SW7.2 kmh SW 9.8 mph15.8 kmh 30.03 in1016.9 mb 0.00 in0.0 mm 0.00 in0.0 mm 0.12 in3.0 mm
09:19 PM 65.3°F18.5°C 63.5°F17.5°C 94% 6.0 mph SW9.7 kmh SW 9.8 mph15.8 kmh 30.03 in1016.9 mb 0.00 in0.0 mm 0.00 in0.0 mm 0.12 in3.0 mm
09:25 PM 65.1°F18.4°C 63.3°F17.4°C 94% 4.9 mph SW7.9 kmh SW 9.8 mph15.8 kmh 30.03 in1016.9 mb 0.00 in0.0 mm 0.00 in0.0 mm 0.12 in3.0 mm
09:30 PM 65.1°F18.4°C 63.3°F17.4°C 94% 5.2 mph SSW8.4 kmh SSW 8.6 mph13.8 kmh 30.03 in1016.9 mb 0.00 in0.0 mm 0.00 in0.0 mm 0.12 in3.0 mm
09:35 PM 64.9°F18.3°C 63.1°F17.3°C 94% 4.8 mph SW7.7 kmh SW 7.6 mph12.2 kmh 30.03 in1016.9 mb 0.00 in0.0 mm 0.00 in0.0 mm 0.12 in3.0 mm
09:40 PM 64.9°F18.3°C 63.1°F17.3°C 94% 5.7 mph WSW9.2 kmh WSW 7.2 mph11.6 kmh 30.03 in1016.9 mb 0.00 in0.0 mm 0.00 in0.0 mm 0.12 in3.0 mm
09:45 PM 64.9°F18.3°C 63.1°F17.3°C 94% 5.0 mph SSW8.0 kmh SSW 8.6 mph13.8 kmh 30.03 in1016.9 mb 0.00 in0.0 mm 0.00 in0.0 mm 0.12 in3.0 mm
09:50 PM 64.7°F18.2°C 62.9°F17.2°C 94% 4.9 mph SSW7.9 kmh SSW 8.6 mph13.8 kmh 30.03 in1016.9 mb 0.00 in0.0 mm 0.00 in0.0 mm 0.12 in3.0 mm
09:55 PM 64.7°F18.2°C 63.2°F17.3°C 95% 6.0 mph SW9.7 kmh SW 8.6 mph13.8 kmh 30.03 in1016.9 mb 0.00 in0.0 mm 0.00 in0.0 mm 0.12 in3.0 mm
10:00 PM 64.7°F18.2°C 62.9°F17.2°C 94% 6.6 mph SW10.6 kmh SW 8.6 mph13.8 kmh 30.03 in1016.9 mb 0.00 in0.0 mm 0.00 in0.0 mm 0.12 in3.0 mm
10:05 PM 64.7°F18.2°C 62.9°F17.2°C 94% 5.4 mph SW8.7 kmh SW 8.6 mph13.8 kmh 30.03 in1016.9 mb 0.00 in0.0 mm 0.00 in0.0 mm 0.12 in3.0 mm
10:10 PM 64.4°F18.0°C 62.6°F17.0°C 94% 3.8 mph S6.1 kmh S 7.6 mph12.2 kmh 30.03 in1016.9 mb 0.00 in0.0 mm 0.00 in0.0 mm 0.12 in3.0 mm
10:16 PM 64.4°F18.0°C 62.9°F17.2°C 95% 6.0 mph SSW9.7 kmh SSW 8.0 mph12.9 kmh 30.03 in1016.9 mb 0.00 in0.0 mm 0.00 in0.0 mm 0.12 in3.0 mm
10:21 PM 64.4°F18.0°C 62.9°F17.2°C 95% 4.7 mph SSW7.6 kmh SSW 11.2 mph18.0 kmh 30.03 in1016.9 mb 0.00 in0.0 mm 0.00 in0.0 mm 0.12 in3.0 mm
10:27 PM 64.4°F18.0°C 62.9°F17.2°C 95% 6.5 mph SW10.5 kmh SW 11.2 mph18.0 kmh 30.03 in1016.9 mb 0.00 in0.0 mm 0.00 in0.0 mm 0.12 in3.0 mm
10:32 PM 64.4°F18.0°C 62.9°F17.2°C 95% 5.7 mph SW9.2 kmh SW 11.6 mph18.7 kmh 30.03 in1016.9 mb 0.00 in0.0 mm 0.00 in0.0 mm 0.12 in3.0 mm
10:37 PM 64.2°F17.9°C 62.7°F17.1°C 95% 5.6 mph S9.0 kmh S 11.6 mph18.7 kmh 30.03 in1016.9 mb 0.00 in0.0 mm 0.00 in0.0 mm 0.12 in3.0 mm
10:42 PM 64.0°F17.8°C 62.8°F17.1°C 96% 4.3 mph SSW6.9 kmh SSW 7.2 mph11.6 kmh 30.03 in1016.9 mb 0.00 in0.0 mm 0.00 in0.0 mm 0.12 in3.0 mm
10:47 PM 64.0°F17.8°C 62.8°F17.1°C 96% 5.2 mph SW8.4 kmh SW 6.8 mph10.9 kmh 30.03 in1016.9 mb 0.00 in0.0 mm 0.00 in0.0 mm 0.12 in3.0 mm
10:52 PM 63.8°F17.7°C 62.6°F17.0°C 96% 5.2 mph SSW8.4 kmh SSW 8.6 mph13.8 kmh 30.03 in1016.9 mb 0.00 in0.0 mm 0.00 in0.0 mm 0.12 in3.0 mm
10:57 PM 64.0°F17.8°C 62.8°F17.1°C 96% 4.5 mph SSW7.2 kmh SSW 8.6 mph13.8 kmh 30.03 in1016.9 mb 0.00 in0.0 mm 0.00 in0.0 mm 0.12 in3.0 mm
11:02 PM 63.8°F17.7°C 62.6°F17.0°C 96% 5.4 mph SSW8.7 kmh SSW 8.6 mph13.8 kmh 30.03 in1016.9 mb 0.00 in0.0 mm 0.00 in0.0 mm 0.12 in3.0 mm
11:07 PM 63.8°F17.7°C 62.6°F17.0°C 96% 6.5 mph SSW10.5 kmh SSW 8.6 mph13.8 kmh 30.03 in1016.9 mb 0.00 in0.0 mm 0.00 in0.0 mm 0.12 in3.0 mm
11:12 PM 63.8°F17.7°C 62.6°F17.0°C 96% 5.9 mph SW9.5 kmh SW 8.6 mph13.8 kmh 30.03 in1016.9 mb 0.00 in0.0 mm 0.00 in0.0 mm 0.12 in3.0 mm
11:17 PM 63.8°F17.7°C 62.6°F17.0°C 96% 4.6 mph S7.4 kmh S 8.6 mph13.8 kmh 30.03 in1016.9 mb 0.00 in0.0 mm 0.00 in0.0 mm 0.12 in3.0 mm
11:22 PM 63.7°F17.6°C 62.8°F17.1°C 97% 6.3 mph SSW10.1 kmh SSW 8.0 mph12.9 kmh 30.03 in1016.9 mb 0.00 in0.0 mm 0.00 in0.0 mm 0.12 in3.0 mm
11:27 PM 63.5°F17.5°C 62.6°F17.0°C 97% 5.3 mph SW8.5 kmh SW 8.0 mph12.9 kmh 30.03 in1016.9 mb 0.00 in0.0 mm 0.00 in0.0 mm 0.12 in3.0 mm
11:32 PM 63.5°F17.5°C 62.6°F17.0°C 97% 4.1 mph SW6.6 kmh SW 8.0 mph12.9 kmh 30.03 in1016.9 mb 0.00 in0.0 mm 0.00 in0.0 mm 0.12 in3.0 mm
11:39 PM 63.3°F17.4°C 62.4°F16.9°C 97% 5.1 mph S8.2 kmh S 8.0 mph12.9 kmh 30.03 in1016.9 mb 0.00 in0.0 mm 0.00 in0.0 mm 0.12 in3.0 mm
11:44 PM 63.3°F17.4°C 62.4°F16.9°C 97% 4.1 mph S6.6 kmh S 7.6 mph12.2 kmh 30.03 in1016.9 mb 0.00 in0.0 mm 0.00 in0.0 mm 0.12 in3.0 mm
11:50 PM 63.3°F17.4°C 62.4°F16.9°C 97% 4.8 mph SSW7.7 kmh SSW 6.8 mph10.9 kmh 30.03 in1016.9 mb 0.00 in0.0 mm 0.00 in0.0 mm 0.12 in3.0 mm
11:55 PM 63.1°F17.3°C 62.2°F16.8°C 97% 3.6 mph SW5.8 kmh SW 6.8 mph10.9 kmh 30.03 in1016.9 mb 0.00 in0.0 mm 0.00 in0.0 mm 0.12 in3.0 mm